sensor_id;sensor_type;location;lat;lon;timestamp;P1;durP1;ratioP1;P2;durP2;ratioP2
18320;SDS011;54904;54.350;18.664;2022-10-16T00:00:41;33.97;;;18.87;;
18320;SDS011;54904;54.350;18.664;2022-10-16T00:03:09;33.87;;;19.30;;
18320;SDS011;54904;54.350;18.664;2022-10-16T00:05:40;34.20;;;18.90;;
18320;SDS011;54904;54.350;18.664;2022-10-16T00:08:10;31.40;;;17.20;;
18320;SDS011;54904;54.350;18.664;2022-10-16T00:10:38;30.13;;;18.10;;
18320;SDS011;54904;54.350;18.664;2022-10-16T00:13:06;31.60;;;18.63;;
18320;SDS011;54904;54.350;18.664;2022-10-16T00:15:33;32.73;;;18.67;;
18320;SDS011;54904;54.350;18.664;2022-10-16T00:18:03;33.03;;;19.13;;
18320;SDS011;54904;54.350;18.664;2022-10-16T00:20:33;28.77;;;16.87;;
18320;SDS011;54904;54.350;18.664;2022-10-16T00:23:02;31.17;;;17.80;;
18320;SDS011;54904;54.350;18.664;2022-10-16T00:25:30;30.30;;;18.07;;
18320;SDS011;54904;54.350;18.664;2022-10-16T00:27:59;30.70;;;18.37;;
18320;SDS011;54904;54.350;18.664;2022-10-16T00:30:26;32.10;;;17.60;;
18320;SDS011;54904;54.350;18.664;2022-10-16T00:32:54;32.47;;;18.07;;
18320;SDS011;54904;54.350;18.664;2022-10-16T00:35:22;37.23;;;19.43;;
18320;SDS011;54904;54.350;18.664;2022-10-16T00:37:50;28.70;;;18.10;;
18320;SDS011;54904;54.350;18.664;2022-10-16T00:40:17;32.27;;;18.57;;
18320;SDS011;54904;54.350;18.664;2022-10-16T00:42:44;36.83;;;18.73;;
18320;SDS011;54904;54.350;18.664;2022-10-16T00:45:11;31.20;;;17.33;;
18320;SDS011;54904;54.350;18.664;2022-10-16T00:47:39;25.13;;;15.50;;
18320;SDS011;54904;54.350;18.664;2022-10-16T00:50:10;19.80;;;12.33;;
18320;SDS011;54904;54.350;18.664;2022-10-16T00:52:44;23.97;;;14.77;;
18320;SDS011;54904;54.350;18.664;2022-10-16T00:55:14;19.07;;;12.07;;
18320;SDS011;54904;54.350;18.664;2022-10-16T00:57:42;25.57;;;14.87;;
18320;SDS011;54904;54.350;18.664;2022-10-16T01:00:11;26.10;;;15.00;;
18320;SDS011;54904;54.350;18.664;2022-10-16T01:02:40;26.07;;;15.60;;
18320;SDS011;54904;54.350;18.664;2022-10-16T01:05:07;27.53;;;17.07;;
18320;SDS011;54904;54.350;18.664;2022-10-16T01:07:37;27.50;;;15.97;;
18320;SDS011;54904;54.350;18.664;2022-10-16T01:10:17;28.17;;;15.97;;
18320;SDS011;54904;54.350;18.664;2022-10-16T01:12:54;25.67;;;15.83;;
18320;SDS011;54904;54.350;18.664;2022-10-16T01:15:26;26.33;;;16.33;;
18320;SDS011;54904;54.350;18.664;2022-10-16T01:18:01;29.50;;;17.33;;
18320;SDS011;54904;54.350;18.664;2022-10-16T01:20:34;30.03;;;16.87;;
18320;SDS011;54904;54.350;18.664;2022-10-16T01:23:09;30.73;;;15.93;;
18320;SDS011;54904;54.350;18.664;2022-10-16T01:25:52;17.87;;;11.30;;
18320;SDS011;54904;54.350;18.664;2022-10-16T01:28:29;21.47;;;12.50;;
18320;SDS011;54904;54.350;18.664;2022-10-16T01:31:03;18.23;;;11.67;;
18320;SDS011;54904;54.350;18.664;2022-10-16T01:33:32;20.40;;;12.10;;
18320;SDS011;54904;54.350;18.664;2022-10-16T01:36:06;27.07;;;14.70;;
18320;SDS011;54904;54.350;18.664;2022-10-16T01:38:38;27.20;;;14.43;;
18320;SDS011;54904;54.350;18.664;2022-10-16T01:41:08;21.67;;;13.37;;
18320;SDS011;54904;54.350;18.664;2022-10-16T01:43:40;23.97;;;13.47;;
18320;SDS011;54904;54.350;18.664;2022-10-16T01:46:10;21.80;;;13.53;;
18320;SDS011;54904;54.350;18.664;2022-10-16T01:48:38;23.77;;;14.27;;
18320;SDS011;54904;54.350;18.664;2022-10-16T01:51:08;23.30;;;14.83;;
18320;SDS011;54904;54.350;18.664;2022-10-16T01:53:38;23.87;;;14.40;;
18320;SDS011;54904;54.350;18.664;2022-10-16T01:56:08;23.07;;;13.77;;
18320;SDS011;54904;54.350;18.664;2022-10-16T01:58:40;21.67;;;13.90;;
18320;SDS011;54904;54.350;18.664;2022-10-16T02:01:11;23.63;;;14.07;;
18320;SDS011;54904;54.350;18.664;2022-10-16T02:03:43;25.03;;;14.73;;
18320;SDS011;54904;54.350;18.664;2022-10-16T02:06:12;22.33;;;14.17;;
18320;SDS011;54904;54.350;18.664;2022-10-16T02:08:39;26.73;;;15.90;;
18320;SDS011;54904;54.350;18.664;2022-10-16T02:11:09;26.87;;;15.83;;
18320;SDS011;54904;54.350;18.664;2022-10-16T02:13:37;26.63;;;15.40;;
18320;SDS011;54904;54.350;18.664;2022-10-16T02:16:10;26.60;;;15.47;;
18320;SDS011;54904;54.350;18.664;2022-10-16T02:18:39;28.17;;;16.87;;
18320;SDS011;54904;54.350;18.664;2022-10-16T02:21:08;29.50;;;17.13;;
18320;SDS011;54904;54.350;18.664;2022-10-16T02:23:42;35.37;;;21.77;;
18320;SDS011;54904;54.350;18.664;2022-10-16T02:26:19;29.30;;;17.03;;
18320;SDS011;54904;54.350;18.664;2022-10-16T02:28:59;27.50;;;17.13;;
18320;SDS011;54904;54.350;18.664;2022-10-16T02:31:31;19.57;;;13.53;;
18320;SDS011;54904;54.350;18.664;2022-10-16T02:34:01;24.47;;;14.30;;
18320;SDS011;54904;54.350;18.664;2022-10-16T02:36:31;21.00;;;13.40;;
18320;SDS011;54904;54.350;18.664;2022-10-16T02:39:01;17.27;;;11.83;;
18320;SDS011;54904;54.350;18.664;2022-10-16T02:41:30;20.43;;;12.13;;
18320;SDS011;54904;54.350;18.664;2022-10-16T02:43:59;21.03;;;12.80;;
18320;SDS011;54904;54.350;18.664;2022-10-16T02:46:26;18.30;;;11.53;;
18320;SDS011;54904;54.350;18.664;2022-10-16T02:48:53;13.10;;;8.57;;
18320;SDS011;54904;54.350;18.664;2022-10-16T02:51:20;10.47;;;7.43;;
18320;SDS011;54904;54.350;18.664;2022-10-16T02:53:47;10.93;;;7.63;;
18320;SDS011;54904;54.350;18.664;2022-10-16T02:56:14;12.30;;;8.13;;
18320;SDS011;54904;54.350;18.664;2022-10-16T02:58:42;9.87;;;7.63;;
18320;SDS011;54904;54.350;18.664;2022-10-16T03:01:11;16.50;;;10.43;;
18320;SDS011;54904;54.350;18.664;2022-10-16T03:03:39;16.63;;;10.27;;
18320;SDS011;54904;54.350;18.664;2022-10-16T03:06:06;19.97;;;11.93;;
18320;SDS011;54904;54.350;18.664;2022-10-16T03:08:33;18.47;;;11.07;;
18320;SDS011;54904;54.350;18.664;2022-10-16T03:11:03;16.00;;;11.10;;
18320;SDS011;54904;54.350;18.664;2022-10-16T03:13:31;19.17;;;11.80;;
18320;SDS011;54904;54.350;18.664;2022-10-16T03:15:58;17.40;;;11.13;;
18320;SDS011;54904;54.350;18.664;2022-10-16T03:18:26;15.93;;;10.77;;
18320;SDS011;54904;54.350;18.664;2022-10-16T03:20:53;18.00;;;11.10;;
18320;SDS011;54904;54.350;18.664;2022-10-16T03:23:21;16.37;;;10.60;;
18320;SDS011;54904;54.350;18.664;2022-10-16T03:25:48;15.07;;;10.20;;
18320;SDS011;54904;54.350;18.664;2022-10-16T03:28:15;15.13;;;9.87;;
18320;SDS011;54904;54.350;18.664;2022-10-16T03:30:42;15.13;;;10.37;;
18320;SDS011;54904;54.350;18.664;2022-10-16T03:33:10;17.27;;;11.20;;
18320;SDS011;54904;54.350;18.664;2022-10-16T03:35:38;19.13;;;10.90;;
18320;SDS011;54904;54.350;18.664;2022-10-16T03:38:05;11.03;;;7.47;;
18320;SDS011;54904;54.350;18.664;2022-10-16T03:40:33;16.53;;;9.47;;
18320;SDS011;54904;54.350;18.664;2022-10-16T03:43:00;13.73;;;9.60;;
18320;SDS011;54904;54.350;18.664;2022-10-16T03:45:27;14.83;;;9.53;;
18320;SDS011;54904;54.350;18.664;2022-10-16T03:47:54;15.27;;;10.17;;
18320;SDS011;54904;54.350;18.664;2022-10-16T03:50:21;12.37;;;9.30;;
18320;SDS011;54904;54.350;18.664;2022-10-16T03:52:49;15.57;;;10.37;;
18320;SDS011;54904;54.350;18.664;2022-10-16T03:55:17;17.00;;;11.87;;
18320;SDS011;54904;54.350;18.664;2022-10-16T03:57:44;21.50;;;12.17;;
18320;SDS011;54904;54.350;18.664;2022-10-16T04:00:11;17.60;;;11.83;;
18320;SDS011;54904;54.350;18.664;2022-10-16T04:02:39;21.70;;;11.23;;
18320;SDS011;54904;54.350;18.664;2022-10-16T04:05:06;16.00;;;9.90;;
18320;SDS011;54904;54.350;18.664;2022-10-16T04:07:34;14.67;;;10.20;;
18320;SDS011;54904;54.350;18.664;2022-10-16T04:10:03;13.50;;;9.70;;
18320;SDS011;54904;54.350;18.664;2022-10-16T04:12:30;13.97;;;10.00;;
18320;SDS011;54904;54.350;18.664;2022-10-16T04:14:58;14.33;;;8.93;;
18320;SDS011;54904;54.350;18.664;2022-10-16T04:17:25;13.03;;;8.90;;
18320;SDS011;54904;54.350;18.664;2022-10-16T04:19:52;11.50;;;8.67;;
18320;SDS011;54904;54.350;18.664;2022-10-16T04:22:19;12.40;;;8.27;;
18320;SDS011;54904;54.350;18.664;2022-10-16T04:24:46;9.10;;;7.10;;
18320;SDS011;54904;54.350;18.664;2022-10-16T04:27:15;10.00;;;8.17;;
18320;SDS011;54904;54.350;18.664;2022-10-16T04:29:42;12.07;;;8.90;;
18320;SDS011;54904;54.350;18.664;2022-10-16T04:32:09;11.40;;;8.33;;
18320;SDS011;54904;54.350;18.664;2022-10-16T04:34:36;11.23;;;8.60;;
18320;SDS011;54904;54.350;18.664;2022-10-16T04:37:06;13.57;;;9.90;;
18320;SDS011;54904;54.350;18.664;2022-10-16T04:39:33;15.60;;;10.57;;
18320;SDS011;54904;54.350;18.664;2022-10-16T04:42:00;15.30;;;10.00;;
18320;SDS011;54904;54.350;18.664;2022-10-16T04:44:29;12.27;;;9.07;;
18320;SDS011;54904;54.350;18.664;2022-10-16T04:46:56;10.17;;;7.60;;
18320;SDS011;54904;54.350;18.664;2022-10-16T04:49:23;14.37;;;9.70;;
18320;SDS011;54904;54.350;18.664;2022-10-16T04:51:50;13.67;;;9.80;;
18320;SDS011;54904;54.350;18.664;2022-10-16T04:54:17;12.37;;;8.90;;
18320;SDS011;54904;54.350;18.664;2022-10-16T04:56:44;11.47;;;8.07;;
18320;SDS011;54904;54.350;18.664;2022-10-16T04:59:13;12.03;;;8.47;;
18320;SDS011;54904;54.350;18.664;2022-10-16T05:01:42;11.00;;;8.17;;
18320;SDS011;54904;54.350;18.664;2022-10-16T05:04:09;11.13;;;7.77;;
18320;SDS011;54904;54.350;18.664;2022-10-16T05:06:37;10.37;;;6.93;;
18320;SDS011;54904;54.350;18.664;2022-10-16T05:09:04;7.20;;;6.07;;
18320;SDS011;54904;54.350;18.664;2022-10-16T05:11:32;10.87;;;6.83;;
18320;SDS011;54904;54.350;18.664;2022-10-16T05:13:59;11.43;;;8.03;;
18320;SDS011;54904;54.350;18.664;2022-10-16T05:16:26;14.37;;;9.50;;
18320;SDS011;54904;54.350;18.664;2022-10-16T05:18:55;14.90;;;9.47;;
18320;SDS011;54904;54.350;18.664;2022-10-16T05:21:22;10.63;;;7.70;;
18320;SDS011;54904;54.350;18.664;2022-10-16T05:23:49;14.07;;;9.37;;
18320;SDS011;54904;54.350;18.664;2022-10-16T05:26:17;15.93;;;10.50;;
18320;SDS011;54904;54.350;18.664;2022-10-16T05:28:44;16.97;;;10.43;;
18320;SDS011;54904;54.350;18.664;2022-10-16T05:31:11;14.13;;;9.70;;
18320;SDS011;54904;54.350;18.664;2022-10-16T05:33:38;19.70;;;11.20;;
18320;SDS011;54904;54.350;18.664;2022-10-16T05:36:07;18.90;;;12.20;;
18320;SDS011;54904;54.350;18.664;2022-10-16T05:38:35;15.37;;;10.93;;
18320;SDS011;54904;54.350;18.664;2022-10-16T05:41:03;22.40;;;13.30;;
18320;SDS011;54904;54.350;18.664;2022-10-16T05:43:31;24.83;;;14.33;;
18320;SDS011;54904;54.350;18.664;2022-10-16T05:45:59;21.83;;;13.93;;
18320;SDS011;54904;54.350;18.664;2022-10-16T05:48:27;20.87;;;13.67;;
18320;SDS011;54904;54.350;18.664;2022-10-16T05:50:58;21.57;;;14.03;;
18320;SDS011;54904;54.350;18.664;2022-10-16T05:53:28;24.97;;;15.27;;
18320;SDS011;54904;54.350;18.664;2022-10-16T05:55:56;17.70;;;11.93;;
18320;SDS011;54904;54.350;18.664;2022-10-16T05:58:24;18.47;;;11.13;;
18320;SDS011;54904;54.350;18.664;2022-10-16T06:00:52;14.70;;;10.23;;
18320;SDS011;54904;54.350;18.664;2022-10-16T06:03:20;17.67;;;12.03;;
18320;SDS011;54904;54.350;18.664;2022-10-16T06:05:47;28.60;;;14.00;;
18320;SDS011;54904;54.350;18.664;2022-10-16T06:08:15;20.93;;;13.40;;
18320;SDS011;54904;54.350;18.664;2022-10-16T06:10:44;20.43;;;12.13;;
18320;SDS011;54904;54.350;18.664;2022-10-16T06:13:12;25.07;;;15.73;;
18320;SDS011;54904;54.350;18.664;2022-10-16T06:15:39;24.67;;;16.00;;
18320;SDS011;54904;54.350;18.664;2022-10-16T06:18:08;20.40;;;13.63;;
18320;SDS011;54904;54.350;18.664;2022-10-16T06:20:35;19.97;;;13.47;;
18320;SDS011;54904;54.350;18.664;2022-10-16T06:23:03;18.13;;;10.70;;
18320;SDS011;54904;54.350;18.664;2022-10-16T06:25:30;17.83;;;12.80;;
18320;SDS011;54904;54.350;18.664;2022-10-16T06:27:59;21.00;;;13.63;;
18320;SDS011;54904;54.350;18.664;2022-10-16T06:30:26;14.43;;;10.87;;
18320;SDS011;54904;54.350;18.664;2022-10-16T06:32:53;23.83;;;15.07;;
18320;SDS011;54904;54.350;18.664;2022-10-16T06:35:20;18.33;;;12.70;;
18320;SDS011;54904;54.350;18.664;2022-10-16T06:37:47;15.97;;;11.60;;
18320;SDS011;54904;54.350;18.664;2022-10-16T06:40:14;18.23;;;11.77;;
18320;SDS011;54904;54.350;18.664;2022-10-16T06:42:41;17.27;;;10.80;;
18320;SDS011;54904;54.350;18.664;2022-10-16T06:45:10;16.07;;;10.40;;
18320;SDS011;54904;54.350;18.664;2022-10-16T06:47:37;23.27;;;14.87;;
18320;SDS011;54904;54.350;18.664;2022-10-16T06:50:05;23.73;;;15.33;;
18320;SDS011;54904;54.350;18.664;2022-10-16T06:52:33;27.10;;;16.10;;
18320;SDS011;54904;54.350;18.664;2022-10-16T06:55:00;24.73;;;16.20;;
18320;SDS011;54904;54.350;18.664;2022-10-16T06:57:28;26.73;;;15.70;;
18320;SDS011;54904;54.350;18.664;2022-10-16T06:59:55;23.93;;;16.30;;
18320;SDS011;54904;54.350;18.664;2022-10-16T07:02:24;26.90;;;16.70;;
18320;SDS011;54904;54.350;18.664;2022-10-16T07:04:51;24.47;;;15.70;;
18320;SDS011;54904;54.350;18.664;2022-10-16T07:07:18;26.97;;;17.40;;
18320;SDS011;54904;54.350;18.664;2022-10-16T07:09:45;26.57;;;16.93;;
18320;SDS011;54904;54.350;18.664;2022-10-16T07:12:13;28.83;;;17.33;;
18320;SDS011;54904;54.350;18.664;2022-10-16T07:14:40;28.53;;;16.70;;
18320;SDS011;54904;54.350;18.664;2022-10-16T07:17:07;33.97;;;19.33;;
18320;SDS011;54904;54.350;18.664;2022-10-16T07:19:35;30.47;;;18.53;;
18320;SDS011;54904;54.350;18.664;2022-10-16T07:22:03;45.63;;;25.00;;
18320;SDS011;54904;54.350;18.664;2022-10-16T07:24:30;35.77;;;21.60;;
18320;SDS011;54904;54.350;18.664;2022-10-16T07:26:57;33.47;;;19.50;;
18320;SDS011;54904;54.350;18.664;2022-10-16T07:29:24;29.63;;;18.07;;
18320;SDS011;54904;54.350;18.664;2022-10-16T07:31:51;29.20;;;17.27;;
18320;SDS011;54904;54.350;18.664;2022-10-16T07:34:19;19.37;;;13.17;;
18320;SDS011;54904;54.350;18.664;2022-10-16T07:36:49;21.77;;;14.70;;
18320;SDS011;54904;54.350;18.664;2022-10-16T07:39:16;22.17;;;14.13;;
18320;SDS011;54904;54.350;18.664;2022-10-16T07:41:44;21.90;;;14.93;;
18320;SDS011;54904;54.350;18.664;2022-10-16T07:44:11;22.70;;;14.57;;
18320;SDS011;54904;54.350;18.664;2022-10-16T07:46:38;29.50;;;16.70;;
18320;SDS011;54904;54.350;18.664;2022-10-16T07:49:06;25.10;;;16.03;;
18320;SDS011;54904;54.350;18.664;2022-10-16T07:51:33;21.90;;;14.20;;
18320;SDS011;54904;54.350;18.664;2022-10-16T07:54:02;23.23;;;15.17;;
18320;SDS011;54904;54.350;18.664;2022-10-16T07:56:30;25.10;;;15.23;;
18320;SDS011;54904;54.350;18.664;2022-10-16T07:58:58;26.03;;;15.63;;
18320;SDS011;54904;54.350;18.664;2022-10-16T08:01:25;24.97;;;16.27;;
18320;SDS011;54904;54.350;18.664;2022-10-16T08:03:52;24.17;;;14.83;;
18320;SDS011;54904;54.350;18.664;2022-10-16T08:06:21;25.10;;;16.33;;
18320;SDS011;54904;54.350;18.664;2022-10-16T08:08:48;28.73;;;16.27;;
18320;SDS011;54904;54.350;18.664;2022-10-16T08:11:17;18.17;;;12.43;;
18320;SDS011;54904;54.350;18.664;2022-10-16T08:13:44;16.10;;;11.27;;
18320;SDS011;54904;54.350;18.664;2022-10-16T08:16:11;13.90;;;9.87;;
18320;SDS011;54904;54.350;18.664;2022-10-16T08:18:39;12.73;;;9.53;;
18320;SDS011;54904;54.350;18.664;2022-10-16T08:21:08;12.23;;;8.57;;
18320;SDS011;54904;54.350;18.664;2022-10-16T08:23:39;10.13;;;8.23;;
18320;SDS011;54904;54.350;18.664;2022-10-16T08:26:07;18.27;;;12.47;;
18320;SDS011;54904;54.350;18.664;2022-10-16T08:28:36;17.60;;;12.37;;
18320;SDS011;54904;54.350;18.664;2022-10-16T08:31:04;18.93;;;12.80;;
18320;SDS011;54904;54.350;18.664;2022-10-16T08:33:33;16.23;;;11.67;;
18320;SDS011;54904;54.350;18.664;2022-10-16T08:36:01;18.33;;;12.33;;
18320;SDS011;54904;54.350;18.664;2022-10-16T08:38:29;25.40;;;14.10;;
18320;SDS011;54904;54.350;18.664;2022-10-16T08:40:57;16.50;;;11.33;;
18320;SDS011;54904;54.350;18.664;2022-10-16T08:43:44;14.13;;;9.77;;
18320;SDS011;54904;54.350;18.664;2022-10-16T08:46:28;13.23;;;9.47;;
18320;SDS011;54904;54.350;18.664;2022-10-16T08:49:09;14.67;;;10.87;;
18320;SDS011;54904;54.350;18.664;2022-10-16T08:51:38;12.90;;;9.67;;
18320;SDS011;54904;54.350;18.664;2022-10-16T08:54:21;25.73;;;15.97;;
18320;SDS011;54904;54.350;18.664;2022-10-16T08:56:53;17.60;;;12.97;;
18320;SDS011;54904;54.350;18.664;2022-10-16T08:59:22;17.33;;;10.75;;
18320;SDS011;54904;54.350;18.664;2022-10-16T09:01:50;12.57;;;8.48;;
18320;SDS011;54904;54.350;18.664;2022-10-16T09:04:33;18.13;;;12.30;;
18320;SDS011;54904;54.350;18.664;2022-10-16T09:07:17;12.10;;;9.43;;
18320;SDS011;54904;54.350;18.664;2022-10-16T09:09:54;11.87;;;8.67;;
18320;SDS011;54904;54.350;18.664;2022-10-16T09:12:31;10.80;;;8.20;;
18320;SDS011;54904;54.350;18.664;2022-10-16T09:15:14;12.10;;;8.93;;
18320;SDS011;54904;54.350;18.664;2022-10-16T09:17:52;10.90;;;8.07;;
18320;SDS011;54904;54.350;18.664;2022-10-16T09:20:35;12.37;;;8.77;;
18320;SDS011;54904;54.350;18.664;2022-10-16T09:23:14;19.15;;;12.90;;
18320;SDS011;54904;54.350;18.664;2022-10-16T09:25:44;17.45;;;11.70;;
18320;SDS011;54904;54.350;18.664;2022-10-16T09:28:14;19.98;;;13.05;;
18320;SDS011;54904;54.350;18.664;2022-10-16T09:30:43;19.30;;;12.70;;
18320;SDS011;54904;54.350;18.664;2022-10-16T09:33:13;21.83;;;13.15;;
18320;SDS011;54904;54.350;18.664;2022-10-16T09:35:42;14.23;;;9.70;;
18320;SDS011;54904;54.350;18.664;2022-10-16T09:38:20;12.03;;;8.93;;
18320;SDS011;54904;54.350;18.664;2022-10-16T09:40:48;17.30;;;11.80;;
18320;SDS011;54904;54.350;18.664;2022-10-16T09:43:19;19.25;;;11.52;;
18320;SDS011;54904;54.350;18.664;2022-10-16T09:45:54;12.30;;;9.63;;
18320;SDS011;54904;54.350;18.664;2022-10-16T09:48:23;11.65;;;8.70;;
18320;SDS011;54904;54.350;18.664;2022-10-16T09:50:56;12.27;;;8.60;;
18320;SDS011;54904;54.350;18.664;2022-10-16T09:53:24;14.77;;;9.90;;
18320;SDS011;54904;54.350;18.664;2022-10-16T09:56:03;17.55;;;11.25;;
18320;SDS011;54904;54.350;18.664;2022-10-16T09:58:32;12.63;;;9.10;;
18320;SDS011;54904;54.350;18.664;2022-10-16T10:01:00;10.10;;;7.77;;
18320;SDS011;54904;54.350;18.664;2022-10-16T10:03:32;11.82;;;8.15;;
18320;SDS011;54904;54.350;18.664;2022-10-16T10:06:04;10.93;;;7.25;;
18320;SDS011;54904;54.350;18.664;2022-10-16T10:08:52;7.15;;;6.20;;
18320;SDS011;54904;54.350;18.664;2022-10-16T10:11:39;8.17;;;6.30;;
18320;SDS011;54904;54.350;18.664;2022-10-16T10:14:19;13.67;;;9.40;;
18320;SDS011;54904;54.350;18.664;2022-10-16T10:16:49;9.88;;;7.90;;
18320;SDS011;54904;54.350;18.664;2022-10-16T10:19:18;24.88;;;10.75;;
18320;SDS011;54904;54.350;18.664;2022-10-16T10:21:46;18.38;;;10.10;;
18320;SDS011;54904;54.350;18.664;2022-10-16T10:24:15;17.10;;;10.02;;
18320;SDS011;54904;54.350;18.664;2022-10-16T10:26:47;10.35;;;7.38;;
18320;SDS011;54904;54.350;18.664;2022-10-16T10:29:35;12.02;;;8.88;;
18320;SDS011;54904;54.350;18.664;2022-10-16T10:32:18;13.95;;;8.45;;
18320;SDS011;54904;54.350;18.664;2022-10-16T10:34:56;8.35;;;6.60;;
18320;SDS011;54904;54.350;18.664;2022-10-16T10:37:51;9.40;;;7.07;;
18320;SDS011;54904;54.350;18.664;2022-10-16T10:40:39;10.40;;;6.88;;
18320;SDS011;54904;54.350;18.664;2022-10-16T10:43:31;13.23;;;9.13;;
18320;SDS011;54904;54.350;18.664;2022-10-16T10:46:11;11.20;;;8.15;;
18320;SDS011;54904;54.350;18.664;2022-10-16T10:48:54;11.18;;;7.82;;
18320;SDS011;54904;54.350;18.664;2022-10-16T10:51:42;12.35;;;8.55;;
18320;SDS011;54904;54.350;18.664;2022-10-16T10:54:17;11.73;;;8.13;;
18320;SDS011;54904;54.350;18.664;2022-10-16T10:56:56;7.77;;;6.77;;
18320;SDS011;54904;54.350;18.664;2022-10-16T10:59:31;10.32;;;7.32;;
18320;SDS011;54904;54.350;18.664;2022-10-16T11:02:16;9.80;;;7.05;;
18320;SDS011;54904;54.350;18.664;2022-10-16T11:04:57;30.52;;;12.88;;
18320;SDS011;54904;54.350;18.664;2022-10-16T11:07:49;15.45;;;9.00;;
18320;SDS011;54904;54.350;18.664;2022-10-16T11:10:21;15.82;;;9.05;;
18320;SDS011;54904;54.350;18.664;2022-10-16T11:12:52;13.40;;;8.48;;
18320;SDS011;54904;54.350;18.664;2022-10-16T11:15:25;13.73;;;8.85;;
18320;SDS011;54904;54.350;18.664;2022-10-16T11:17:59;8.27;;;6.47;;
18320;SDS011;54904;54.350;18.664;2022-10-16T11:20:33;6.45;;;5.63;;
18320;SDS011;54904;54.350;18.664;2022-10-16T11:23:05;16.50;;;6.30;;
18320;SDS011;54904;54.350;18.664;2022-10-16T11:25:39;11.00;;;8.30;;
18320;SDS011;54904;54.350;18.664;2022-10-16T11:28:09;10.63;;;7.93;;
18320;SDS011;54904;54.350;18.664;2022-10-16T11:30:41;9.60;;;7.35;;
18320;SDS011;54904;54.350;18.664;2022-10-16T11:33:18;9.60;;;7.18;;
18320;SDS011;54904;54.350;18.664;2022-10-16T11:35:55;8.23;;;6.25;;
18320;SDS011;54904;54.350;18.664;2022-10-16T11:38:29;9.63;;;7.78;;
18320;SDS011;54904;54.350;18.664;2022-10-16T11:41:02;9.35;;;7.05;;
18320;SDS011;54904;54.350;18.664;2022-10-16T11:43:37;8.18;;;6.55;;
18320;SDS011;54904;54.350;18.664;2022-10-16T11:47:15;6.82;;;5.93;;
18320;SDS011;54904;54.350;18.664;2022-10-16T11:49:53;12.23;;;8.60;;
18320;SDS011;54904;54.350;18.664;2022-10-16T11:56:28;6.05;;;5.45;;
18320;SDS011;54904;54.350;18.664;2022-10-16T11:59:10;7.75;;;5.82;;
18320;SDS011;54904;54.350;18.664;2022-10-16T12:02:35;5.90;;;5.30;;
18320;SDS011;54904;54.350;18.664;2022-10-16T12:09:18;5.60;;;5.10;;
18320;SDS011;54904;54.350;18.664;2022-10-16T12:11:49;5.90;;;5.30;;
18320;SDS011;54904;54.350;18.664;2022-10-16T12:14:20;5.35;;;4.85;;
18320;SDS011;54904;54.350;18.664;2022-10-16T12:17:01;6.35;;;4.78;;
18320;SDS011;54904;54.350;18.664;2022-10-16T12:19:31;5.72;;;5.13;;
18320;SDS011;54904;54.350;18.664;2022-10-16T12:22:02;6.97;;;5.90;;
18320;SDS011;54904;54.350;18.664;2022-10-16T12:24:35;8.68;;;6.70;;
18320;SDS011;54904;54.350;18.664;2022-10-16T12:27:06;6.57;;;5.80;;
18320;SDS011;54904;54.350;18.664;2022-10-16T12:29:53;5.65;;;5.13;;
18320;SDS011;54904;54.350;18.664;2022-10-16T12:32:23;8.93;;;7.13;;
18320;SDS011;54904;54.350;18.664;2022-10-16T12:34:55;9.27;;;6.80;;
18320;SDS011;54904;54.350;18.664;2022-10-16T12:37:25;7.78;;;6.80;;
18320;SDS011;54904;54.350;18.664;2022-10-16T12:39:57;5.95;;;5.32;;
18320;SDS011;54904;54.350;18.664;2022-10-16T12:42:34;5.95;;;5.00;;
18320;SDS011;54904;54.350;18.664;2022-10-16T12:45:01;7.90;;;6.03;;
18320;SDS011;54904;54.350;18.664;2022-10-16T12:48:19;5.93;;;5.28;;
18320;SDS011;54904;54.350;18.664;2022-10-16T12:50:47;4.90;;;4.50;;
18320;SDS011;54904;54.350;18.664;2022-10-16T12:53:37;5.05;;;4.55;;
18320;SDS011;54904;54.350;18.664;2022-10-16T12:56:11;4.53;;;4.15;;
18320;SDS011;54904;54.350;18.664;2022-10-16T12:58:54;4.80;;;4.40;;
18320;SDS011;54904;54.350;18.664;2022-10-16T13:01:34;4.93;;;4.47;;
18320;SDS011;54904;54.350;18.664;2022-10-16T13:07:21;4.63;;;4.22;;
18320;SDS011;54904;54.350;18.664;2022-10-16T13:10:25;4.05;;;3.75;;
18320;SDS011;54904;54.350;18.664;2022-10-16T13:13:10;5.28;;;4.78;;
18320;SDS011;54904;54.350;18.664;2022-10-16T13:19:28;4.80;;;4.40;;
18320;SDS011;54904;54.350;18.664;2022-10-16T13:23:01;3.90;;;3.60;;
18320;SDS011;54904;54.350;18.664;2022-10-16T13:26:13;5.60;;;4.03;;
18320;SDS011;54904;54.350;18.664;2022-10-16T13:28:50;3.60;;;3.30;;
18320;SDS011;54904;54.350;18.664;2022-10-16T13:31:18;5.32;;;3.75;;
18320;SDS011;54904;54.350;18.664;2022-10-16T13:33:49;4.35;;;3.92;;
18320;SDS011;54904;54.350;18.664;2022-10-16T13:36:22;4.70;;;3.90;;
18320;SDS011;54904;54.350;18.664;2022-10-16T13:38:59;3.38;;;3.17;;
18320;SDS011;54904;54.350;18.664;2022-10-16T13:41:31;3.60;;;3.28;;
18320;SDS011;54904;54.350;18.664;2022-10-16T13:43:59;6.32;;;4.07;;
18320;SDS011;54904;54.350;18.664;2022-10-16T13:46:26;4.30;;;3.92;;
18320;SDS011;54904;54.350;18.664;2022-10-16T13:48:58;4.20;;;3.80;;
18320;SDS011;54904;54.350;18.664;2022-10-16T13:51:27;3.50;;;3.20;;
18320;SDS011;54904;54.350;18.664;2022-10-16T13:53:54;3.60;;;3.17;;
18320;SDS011;54904;54.350;18.664;2022-10-16T13:56:24;2.95;;;2.75;;
18320;SDS011;54904;54.350;18.664;2022-10-16T13:59:01;3.30;;;3.10;;
18320;SDS011;54904;54.350;18.664;2022-10-16T14:01:30;6.80;;;2.92;;
18320;SDS011;54904;54.350;18.664;2022-10-16T14:04:04;3.00;;;2.72;;
18320;SDS011;54904;54.350;18.664;2022-10-16T14:06:32;3.03;;;2.83;;
18320;SDS011;54904;54.350;18.664;2022-10-16T14:09:02;3.35;;;3.15;;
18320;SDS011;54904;54.350;18.664;2022-10-16T14:11:34;4.40;;;4.07;;
18320;SDS011;54904;54.350;18.664;2022-10-16T14:14:09;3.67;;;3.38;;
18320;SDS011;54904;54.350;18.664;2022-10-16T14:16:37;3.55;;;3.25;;
18320;SDS011;54904;54.350;18.664;2022-10-16T14:19:13;3.40;;;3.10;;
18320;SDS011;54904;54.350;18.664;2022-10-16T14:21:44;3.45;;;3.15;;
18320;SDS011;54904;54.350;18.664;2022-10-16T14:24:12;3.03;;;2.78;;
18320;SDS011;54904;54.350;18.664;2022-10-16T14:26:43;3.03;;;2.78;;
18320;SDS011;54904;54.350;18.664;2022-10-16T14:29:14;2.85;;;2.65;;
18320;SDS011;54904;54.350;18.664;2022-10-16T14:31:54;2.65;;;2.45;;
18320;SDS011;54904;54.350;18.664;2022-10-16T14:34:23;1.90;;;1.80;;
18320;SDS011;54904;54.350;18.664;2022-10-16T14:36:55;2.80;;;2.60;;
18320;SDS011;54904;54.350;18.664;2022-10-16T14:39:29;3.17;;;2.97;;
18320;SDS011;54904;54.350;18.664;2022-10-16T14:42:01;3.55;;;3.28;;
18320;SDS011;54904;54.350;18.664;2022-10-16T14:47:27;5.28;;;3.83;;
18320;SDS011;54904;54.350;18.664;2022-10-16T14:49:54;3.20;;;3.00;;
18320;SDS011;54904;54.350;18.664;2022-10-16T14:52:24;4.22;;;3.88;;
18320;SDS011;54904;54.350;18.664;2022-10-16T14:54:51;3.42;;;3.13;;
18320;SDS011;54904;54.350;18.664;2022-10-16T14:57:20;3.85;;;3.47;;
18320;SDS011;54904;54.350;18.664;2022-10-16T14:59:49;4.28;;;3.88;;
18320;SDS011;54904;54.350;18.664;2022-10-16T15:02:20;4.18;;;3.75;;